Terminal Aerodrome Forecast
Issued by NWS

Home | Current Version | Previous Version | Text Only | Print | Product List | Glossary On
Versions: 1 2 3 4 5 6 7 8 9 10 11 12 13 14 15 16 17
051
FTUS41 KPBZ 270533
TAFBVI
TAF
KBVI 270533Z 2706/2806 15007KT P6SM SCT006 OVC015
      TEMPO 2706/2708 4SM -SHRA BKN025
     FM271400 23008KT P6SM OVC035
     FM280200 18003KT P6SM VCSH BKN090
      AMD NOT SKED=

USA.gov is the U.S. government's official web portal to all federal, state and local government web resources and services.